createdAt,value
2022-12-03T00:01:37.589Z,21.60
2022-12-03T00:04:06.007Z,31.80
2022-12-03T00:06:34.913Z,31.70
2022-12-03T00:09:04.568Z,34.20
2022-12-03T00:11:32.856Z,31.00
2022-12-03T00:14:00.992Z,32.10
2022-12-03T00:16:29.473Z,29.10
2022-12-03T00:18:58.128Z,31.40
2022-12-03T00:21:26.366Z,32.70
2022-12-03T00:23:54.636Z,41.90
2022-12-03T00:26:22.921Z,31.80
2022-12-03T00:28:52.466Z,31.30
2022-12-03T00:31:24.844Z,35.90
2022-12-03T00:33:53.662Z,31.90
2022-12-03T00:36:22.129Z,18.50
2022-12-03T00:38:50.721Z,35.70
2022-12-03T00:41:18.956Z,31.40
2022-12-03T00:43:47.254Z,39.90
2022-12-03T00:46:20.897Z,30.50
2022-12-03T00:48:49.621Z,32.30
2022-12-03T00:51:18.075Z,42.60
2022-12-03T00:53:46.292Z,30.50
2022-12-03T00:56:14.558Z,30.00
2022-12-03T00:58:42.834Z,31.80
2022-12-03T01:01:11.210Z,32.60
2022-12-03T01:03:39.394Z,32.60
2022-12-03T01:06:07.556Z,39.70
2022-12-03T01:08:35.712Z,30.80
2022-12-03T01:11:04.427Z,29.60
2022-12-03T01:13:32.589Z,26.60
2022-12-03T01:16:00.912Z,33.60
2022-12-03T01:18:29.356Z,28.10
2022-12-03T01:20:57.536Z,31.80
2022-12-03T01:23:25.715Z,31.00
2022-12-03T01:25:53.911Z,26.90
2022-12-03T01:28:22.051Z,33.50
2022-12-03T01:31:08.643Z,28.00
2022-12-03T01:33:36.824Z,36.60
2022-12-03T01:36:05.420Z,30.50
2022-12-03T01:38:33.700Z,32.20
2022-12-03T01:41:02.634Z,32.30
2022-12-03T01:43:32.989Z,28.00
2022-12-03T01:46:01.908Z,37.20
2022-12-03T01:48:34.929Z,31.90
2022-12-03T01:51:03.569Z,32.70
2022-12-03T01:53:31.749Z,31.60
2022-12-03T01:55:59.932Z,33.30
2022-12-03T01:58:29.945Z,30.10
2022-12-03T02:01:10.504Z,26.30
2022-12-03T02:03:39.136Z,27.40
2022-12-03T02:06:21.916Z,34.10
2022-12-03T02:08:51.409Z,35.10
2022-12-03T02:11:25.692Z,28.70
2022-12-03T02:13:59.849Z,30.80
2022-12-03T02:16:29.206Z,30.00
2022-12-03T02:18:58.539Z,31.50
2022-12-03T02:21:45.612Z,33.10
2022-12-03T02:24:20.180Z,30.50
2022-12-03T02:26:48.663Z,29.40
2022-12-03T02:29:17.045Z,31.40
2022-12-03T02:31:45.503Z,29.50
2022-12-03T02:34:34.543Z,31.80
2022-12-03T02:37:04.188Z,27.60
2022-12-03T02:39:35.650Z,27.40
2022-12-03T02:42:24.613Z,26.20
2022-12-03T02:44:53.758Z,28.30
2022-12-03T02:47:23.846Z,27.20
2022-12-03T02:49:52.920Z,30.80
2022-12-03T02:52:21.180Z,26.40
2022-12-03T02:54:49.889Z,32.00
2022-12-03T02:57:18.202Z,24.10
2022-12-03T02:59:46.846Z,28.90
2022-12-03T03:02:15.488Z,27.40
2022-12-03T03:04:44.827Z,25.50
2022-12-03T03:07:14.324Z,32.40
2022-12-03T03:09:43.226Z,35.90
2022-12-03T03:12:12.100Z,31.60
2022-12-03T03:14:40.387Z,22.10
2022-12-03T03:17:08.677Z,32.60
2022-12-03T03:19:36.955Z,29.50
2022-12-03T03:22:05.648Z,29.10
2022-12-03T03:24:33.902Z,36.00
2022-12-03T03:27:02.180Z,32.40
2022-12-03T03:29:32.253Z,34.80
2022-12-03T03:32:02.165Z,30.80
2022-12-03T03:34:33.023Z,41.00
2022-12-03T03:37:01.337Z,33.20
2022-12-03T03:39:29.615Z,29.50
2022-12-03T03:41:57.895Z,32.40
2022-12-03T03:44:26.156Z,35.00
2022-12-03T03:46:55.373Z,36.00
2022-12-03T03:49:23.748Z,37.80
2022-12-03T03:51:52.220Z,35.00
2022-12-03T03:54:20.800Z,29.90
2022-12-03T03:56:49.394Z,29.10
2022-12-03T03:59:18.027Z,35.70
2022-12-03T04:01:46.581Z,28.60
2022-12-03T04:04:24.802Z,31.60
2022-12-03T04:06:53.376Z,27.70
2022-12-03T04:09:21.622Z,30.60
2022-12-03T04:12:08.560Z,28.50
2022-12-03T04:14:36.705Z,31.10
2022-12-03T04:17:05.013Z,33.00
2022-12-03T04:19:33.079Z,35.70
2022-12-03T04:22:19.870Z,33.80
2022-12-03T04:24:48.479Z,35.70
2022-12-03T04:27:35.474Z,34.60
2022-12-03T04:30:04.014Z,33.20
2022-12-03T04:32:51.068Z,36.20
2022-12-03T04:35:38.540Z,31.80
2022-12-03T04:38:06.983Z,35.80
2022-12-03T04:41:10.579Z,25.70
2022-12-03T04:43:58.739Z,32.40
2022-12-03T04:46:26.903Z,32.40
2022-12-03T04:48:55.179Z,33.10
2022-12-03T04:51:23.369Z,27.90
2022-12-03T04:53:51.511Z,32.40
2022-12-03T04:56:19.694Z,32.90
2022-12-03T04:58:47.975Z,34.20
2022-12-03T05:01:17.436Z,30.20
2022-12-03T05:03:45.958Z,32.90
2022-12-03T05:06:14.139Z,31.10
2022-12-03T05:08:42.396Z,34.60
2022-12-03T05:11:10.895Z,30.30
2022-12-03T05:13:39.059Z,30.90
2022-12-03T05:16:07.839Z,26.90
2022-12-03T05:18:35.915Z,28.50
2022-12-03T05:21:04.825Z,33.70
2022-12-03T05:23:33.716Z,35.90
2022-12-03T05:26:02.192Z,31.50
2022-12-03T05:28:30.557Z,32.50
2022-12-03T05:30:58.788Z,32.60
2022-12-03T05:33:27.012Z,32.20
2022-12-03T05:35:55.402Z,38.10
2022-12-03T05:38:23.771Z,25.00
2022-12-03T05:40:51.936Z,32.30
2022-12-03T05:43:20.126Z,37.50
2022-12-03T05:45:48.390Z,32.80
2022-12-03T05:48:17.387Z,32.90
2022-12-03T05:50:47.107Z,29.90
2022-12-03T05:53:19.786Z,34.10
2022-12-03T05:55:47.961Z,34.90
2022-12-03T05:58:16.340Z,38.00
2022-12-03T06:00:45.733Z,37.10
2022-12-03T06:03:14.053Z,36.60
2022-12-03T06:05:42.297Z,37.40
2022-12-03T06:08:10.614Z,38.10
2022-12-03T06:10:39.045Z,40.60
2022-12-03T06:13:07.226Z,38.90
2022-12-03T06:15:40.392Z,35.10
2022-12-03T06:18:12.179Z,35.20
2022-12-03T06:20:40.545Z,38.10
2022-12-03T06:23:08.719Z,25.90
2022-12-03T06:25:37.207Z,37.50
2022-12-03T06:28:06.218Z,39.90
2022-12-03T06:30:36.036Z,26.40
2022-12-03T06:33:04.450Z,38.00
2022-12-03T06:35:32.772Z,36.50
2022-12-03T06:38:01.248Z,39.90
2022-12-03T06:40:29.763Z,39.70
2022-12-03T06:42:59.099Z,39.60
2022-12-03T06:45:28.130Z,38.80
2022-12-03T06:47:56.301Z,37.90
2022-12-03T06:50:24.574Z,37.90
2022-12-03T06:52:52.962Z,39.80
2022-12-03T06:55:21.131Z,32.40
2022-12-03T06:57:49.741Z,26.90
2022-12-03T07:00:18.818Z,28.30
2022-12-03T07:02:47.359Z,31.00
2022-12-03T07:05:16.180Z,36.70
2022-12-03T07:07:47.423Z,36.40
2022-12-03T07:10:16.010Z,39.00
2022-12-03T07:12:44.615Z,36.90
2022-12-03T07:15:13.387Z,38.30
2022-12-03T07:17:41.749Z,34.20
2022-12-03T07:20:10.962Z,31.80
2022-12-03T07:22:39.349Z,36.50
2022-12-03T07:25:08.542Z,35.10
2022-12-03T07:27:36.710Z,30.40
2022-12-03T07:30:08.422Z,30.70
2022-12-03T07:32:36.842Z,36.30
2022-12-03T07:35:07.781Z,34.50
2022-12-03T07:37:36.285Z,32.10
2022-12-03T07:40:06.353Z,25.80
2022-12-03T07:42:34.763Z,37.00
2022-12-03T07:45:03.587Z,38.80
2022-12-03T07:47:32.340Z,42.50
2022-12-03T07:50:00.725Z,39.70
2022-12-03T07:52:29.205Z,40.30
2022-12-03T07:54:58.207Z,33.00
2022-12-03T07:57:28.006Z,39.40
2022-12-03T07:59:56.786Z,31.10
2022-12-03T08:02:25.222Z,37.10
2022-12-03T08:04:54.991Z,37.50
2022-12-03T08:07:24.409Z,34.00
2022-12-03T08:09:53.483Z,32.10
2022-12-03T08:12:45.736Z,42.60
2022-12-03T08:15:20.954Z,24.90
2022-12-03T08:17:56.471Z,25.40
2022-12-03T08:20:28.576Z,37.00
2022-12-03T08:22:57.672Z,30.40
2022-12-03T08:25:29.859Z,28.60
2022-12-03T08:28:17.140Z,38.80
2022-12-03T08:30:59.993Z,37.20
2022-12-03T08:33:35.926Z,31.10
2022-12-03T08:36:25.694Z,38.30
2022-12-03T08:39:01.083Z,38.00
2022-12-03T08:41:49.075Z,22.60
2022-12-03T08:44:28.017Z,32.30
2022-12-03T08:47:13.271Z,33.30
2022-12-03T08:49:45.030Z,46.10
2022-12-03T08:52:19.703Z,41.30
2022-12-03T08:54:53.557Z,38.10
2022-12-03T08:57:27.983Z,44.10
2022-12-03T09:00:15.641Z,36.10
2022-12-03T09:02:52.438Z,34.00
2022-12-03T09:05:24.241Z,30.10
2022-12-03T09:07:52.771Z,33.20
2022-12-03T09:10:21.923Z,35.00
2022-12-03T09:12:50.527Z,40.50
2022-12-03T09:15:18.904Z,45.20
2022-12-03T09:17:47.375Z,44.10
2022-12-03T09:20:16.166Z,46.30
2022-12-03T09:22:44.749Z,40.20
2022-12-03T09:25:13.233Z,46.80
2022-12-03T09:27:41.715Z,34.80
2022-12-03T09:30:10.979Z,43.80
2022-12-03T09:32:39.988Z,38.80
2022-12-03T09:35:10.174Z,35.30
2022-12-03T09:37:38.962Z,34.80
2022-12-03T09:40:10.136Z,42.60
2022-12-03T09:42:40.152Z,39.00
2022-12-03T09:45:12.613Z,32.30
2022-12-03T09:47:46.824Z,33.30
2022-12-03T09:50:20.896Z,42.10
2022-12-03T09:52:52.525Z,34.50
2022-12-03T09:55:24.859Z,49.60
2022-12-03T09:57:55.844Z,42.30
2022-12-03T10:00:27.495Z,33.00
2022-12-03T10:03:04.491Z,49.60
2022-12-03T10:05:35.131Z,49.70
2022-12-03T10:08:06.908Z,39.90
2022-12-03T10:10:37.438Z,33.10
2022-12-03T10:13:07.923Z,47.80
2022-12-03T10:15:38.052Z,42.00
2022-12-03T10:18:22.171Z,43.90
2022-12-03T10:20:53.391Z,39.90
2022-12-03T10:23:31.479Z,46.50
2022-12-03T10:26:05.973Z,43.10
2022-12-03T10:28:41.059Z,38.10
2022-12-03T10:31:12.644Z,52.40
2022-12-03T10:33:47.654Z,47.90
2022-12-03T10:36:18.695Z,50.30
2022-12-03T10:39:05.362Z,39.00
2022-12-03T10:41:34.055Z,38.50
2022-12-03T10:44:32.137Z,45.60
2022-12-03T10:47:12.590Z,42.60
2022-12-03T10:49:42.102Z,48.70
2022-12-03T10:52:25.953Z,54.00
2022-12-03T10:54:56.537Z,45.40
2022-12-03T10:57:27.257Z,45.50
2022-12-03T10:59:56.023Z,47.00
2022-12-03T11:02:26.134Z,44.40
2022-12-03T11:04:55.718Z,48.00
2022-12-03T11:07:26.529Z,44.20
2022-12-03T11:09:55.754Z,46.40
2022-12-03T11:12:28.119Z,45.70
2022-12-03T11:14:57.938Z,43.40
2022-12-03T11:17:52.329Z,45.90
2022-12-03T11:20:23.015Z,45.40
2022-12-03T11:22:56.863Z,37.20
2022-12-03T11:25:25.354Z,35.40
2022-12-03T11:28:12.895Z,32.50
2022-12-03T11:30:54.919Z,41.10
2022-12-03T11:33:29.812Z,48.40
2022-12-03T11:36:05.311Z,41.90
2022-12-03T11:38:52.393Z,46.70
2022-12-03T11:41:33.955Z,41.80
2022-12-03T11:44:06.221Z,33.30
2022-12-03T11:46:37.747Z,49.60
2022-12-03T11:49:35.043Z,55.80
2022-12-03T11:52:20.916Z,40.30
2022-12-03T11:54:56.003Z,42.30
2022-12-03T11:57:39.219Z,36.10
2022-12-03T12:00:23.303Z,42.60
2022-12-03T12:02:55.224Z,47.90
2022-12-03T12:05:24.204Z,47.90
2022-12-03T12:07:53.712Z,26.50
2022-12-03T12:10:47.661Z,42.80
2022-12-03T12:13:25.341Z,41.20
2022-12-03T12:15:54.453Z,45.20
2022-12-03T12:18:46.132Z,59.30
2022-12-03T12:21:43.042Z,52.40
2022-12-03T12:24:41.386Z,48.30
2022-12-03T12:27:17.495Z,42.20
2022-12-03T12:29:55.872Z,47.20
2022-12-03T12:32:39.452Z,51.40
2022-12-03T12:35:24.507Z,48.40
2022-12-03T12:37:59.807Z,49.30
2022-12-03T12:40:34.140Z,50.80
2022-12-03T12:43:20.340Z,44.30
2022-12-03T12:45:56.704Z,49.70
2022-12-03T12:48:35.510Z,50.50
2022-12-03T12:51:12.380Z,52.60
2022-12-03T12:53:44.176Z,57.00
2022-12-03T12:56:25.130Z,55.90
2022-12-03T12:58:54.538Z,51.80
2022-12-03T13:01:30.673Z,48.20
2022-12-03T13:04:00.288Z,47.70
2022-12-03T13:06:32.503Z,58.40
2022-12-03T13:09:04.325Z,53.60
2022-12-03T13:11:47.415Z,49.90
2022-12-03T13:14:22.704Z,54.30
2022-12-03T13:16:53.665Z,59.30
2022-12-03T13:19:27.807Z,58.60
2022-12-03T13:22:00.391Z,51.70
2022-12-03T13:24:41.500Z,60.30
2022-12-03T13:27:23.390Z,62.10
2022-12-03T13:30:00.644Z,60.10
2022-12-03T13:32:35.157Z,56.70
2022-12-03T13:35:10.367Z,53.70
2022-12-03T13:37:39.546Z,46.20
2022-12-03T13:40:24.104Z,51.60
2022-12-03T13:42:53.555Z,56.10
2022-12-03T13:45:24.847Z,51.30
2022-12-03T13:47:56.527Z,59.10
2022-12-03T13:50:40.046Z,59.00
2022-12-03T13:53:12.151Z,65.10
2022-12-03T13:55:45.610Z,55.90
2022-12-03T13:58:14.090Z,56.40
2022-12-03T14:00:42.755Z,58.40
2022-12-03T14:03:11.551Z,59.30
2022-12-03T14:05:40.348Z,51.20
2022-12-03T14:08:09.179Z,60.10
2022-12-03T14:10:37.723Z,59.20
2022-12-03T14:13:06.278Z,55.40
2022-12-03T14:15:35.843Z,65.10
2022-12-03T14:18:05.025Z,62.70
2022-12-03T14:20:35.558Z,59.10
2022-12-03T14:23:05.177Z,67.00
2022-12-03T14:25:34.375Z,60.80
2022-12-03T14:28:05.902Z,62.30
2022-12-03T14:30:35.353Z,62.40
2022-12-03T14:33:04.186Z,65.40
2022-12-03T14:35:32.577Z,64.60
2022-12-03T14:38:01.358Z,60.40
2022-12-03T14:40:30.988Z,65.30
2022-12-03T14:43:00.269Z,65.10
2022-12-03T14:45:30.416Z,53.00
2022-12-03T14:47:58.870Z,65.50
2022-12-03T14:50:27.254Z,62.10
2022-12-03T14:52:55.870Z,68.70
2022-12-03T14:55:24.413Z,62.40
2022-12-03T14:57:53.002Z,67.20
2022-12-03T15:00:23.427Z,51.50
2022-12-03T15:02:51.840Z,63.60
2022-12-03T15:05:27.880Z,54.00
2022-12-03T15:07:57.422Z,66.00
2022-12-03T15:10:25.966Z,68.80
2022-12-03T15:12:55.660Z,60.80
2022-12-03T15:15:24.002Z,61.60
2022-12-03T15:17:53.174Z,57.40
2022-12-03T15:20:21.738Z,57.70
2022-12-03T15:22:50.304Z,61.40
2022-12-03T15:25:25.700Z,61.70
2022-12-03T15:27:54.226Z,54.60
2022-12-03T15:30:22.599Z,60.80
2022-12-03T15:32:51.181Z,51.80
2022-12-03T15:35:19.538Z,60.80
2022-12-03T15:37:47.846Z,59.50
2022-12-03T15:40:16.333Z,53.20
2022-12-03T15:42:44.813Z,54.10
2022-12-03T15:45:15.331Z,59.30
2022-12-03T15:47:44.834Z,55.90
2022-12-03T15:50:14.770Z,58.80
2022-12-03T15:52:43.455Z,52.80
2022-12-03T15:55:12.129Z,55.50
2022-12-03T15:57:40.716Z,59.80
2022-12-03T16:00:11.535Z,55.70
2022-12-03T16:02:50.752Z,53.90
2022-12-03T16:05:22.337Z,48.00
2022-12-03T16:07:54.227Z,49.60
2022-12-03T16:10:22.770Z,49.00
2022-12-03T16:12:51.937Z,51.90
2022-12-03T16:15:26.477Z,51.90
2022-12-03T16:17:55.696Z,46.90
2022-12-03T16:20:24.204Z,44.60
2022-12-03T16:22:52.652Z,51.50
2022-12-03T16:25:21.039Z,42.00
2022-12-03T16:27:49.624Z,38.00
2022-12-03T16:30:18.317Z,44.70
2022-12-03T16:32:46.898Z,51.10
2022-12-03T16:35:15.309Z,48.30
2022-12-03T16:37:43.851Z,47.70
2022-12-03T16:40:12.741Z,41.70
2022-12-03T16:42:41.253Z,47.90
2022-12-03T16:45:11.055Z,43.50
2022-12-03T16:47:39.938Z,48.90
2022-12-03T16:50:14.584Z,48.70
2022-12-03T16:52:48.484Z,45.90
2022-12-03T16:55:17.592Z,43.10
2022-12-03T16:57:46.449Z,46.90
2022-12-03T17:00:16.487Z,46.30
2022-12-03T17:02:45.586Z,45.40
2022-12-03T17:05:14.859Z,44.80
2022-12-03T17:07:44.278Z,49.20
2022-12-03T17:10:13.514Z,44.70
2022-12-03T17:13:08.255Z,42.00
2022-12-03T17:15:31.801Z,44.00
2022-12-03T17:18:01.536Z,47.10
2022-12-03T17:20:32.300Z,42.70
2022-12-03T17:23:02.480Z,48.10
2022-12-03T17:25:31.703Z,49.80
2022-12-03T17:28:01.380Z,49.70
2022-12-03T17:30:30.545Z,49.60
2022-12-03T17:32:59.527Z,51.00
2022-12-03T17:35:29.332Z,48.30
2022-12-03T17:37:59.332Z,52.00
2022-12-03T17:40:29.243Z,47.50
2022-12-03T17:42:58.649Z,49.80
2022-12-03T17:45:28.248Z,47.50
2022-12-03T17:47:58.073Z,49.00
2022-12-03T17:50:26.859Z,47.50
2022-12-03T17:52:55.746Z,49.20
2022-12-03T17:55:33.871Z,50.50
2022-12-03T17:58:06.729Z,49.70
2022-12-03T18:00:35.210Z,51.30
2022-12-03T18:03:03.801Z,44.20
2022-12-03T18:05:32.283Z,54.50
2022-12-03T18:08:00.907Z,53.40
2022-12-03T18:10:30.099Z,52.80
2022-12-03T18:13:01.971Z,52.90
2022-12-03T18:15:32.874Z,47.30
2022-12-03T18:18:02.573Z,52.30
2022-12-03T18:20:33.549Z,42.30
2022-12-03T18:23:02.838Z,52.40
2022-12-03T18:25:33.005Z,52.90
2022-12-03T18:28:02.551Z,58.20
2022-12-03T18:30:31.520Z,45.90
2022-12-03T18:33:01.914Z,54.00
2022-12-03T18:35:34.371Z,56.90
2022-12-03T18:38:03.397Z,54.50
2022-12-03T18:40:32.413Z,56.60
2022-12-03T18:43:01.527Z,48.90
2022-12-03T18:45:30.848Z,54.10
2022-12-03T18:48:00.659Z,45.10
2022-12-03T18:50:30.726Z,57.30
2022-12-03T18:53:00.868Z,53.70
2022-12-03T18:55:35.246Z,57.20
2022-12-03T18:58:04.503Z,53.70
2022-12-03T19:00:36.128Z,55.80
2022-12-03T19:03:06.235Z,63.80
2022-12-03T19:05:37.703Z,58.20
2022-12-03T19:08:15.059Z,52.10
2022-12-03T19:10:45.618Z,53.50
2022-12-03T19:13:16.602Z,60.80
2022-12-03T19:15:50.245Z,64.20
2022-12-03T19:18:21.051Z,66.60
2022-12-03T19:20:51.647Z,57.60
2022-12-03T19:23:20.946Z,59.50
2022-12-03T19:26:01.840Z,59.60
2022-12-03T19:28:31.429Z,59.60
2022-12-03T19:31:02.421Z,58.30
2022-12-03T19:33:32.449Z,54.90
2022-12-03T19:36:04.249Z,58.50
2022-12-03T19:38:34.565Z,59.50
2022-12-03T19:41:06.890Z,62.80
2022-12-03T19:43:37.653Z,57.60
2022-12-03T19:46:11.134Z,53.80
2022-12-03T19:48:40.981Z,53.60
2022-12-03T19:51:33.068Z,48.90
2022-12-03T19:54:01.555Z,54.30
2022-12-03T19:56:33.507Z,53.50
2022-12-03T19:59:03.596Z,59.40
2022-12-03T20:01:36.346Z,53.20
2022-12-03T20:04:09.211Z,58.40
2022-12-03T20:06:40.576Z,59.60
2022-12-03T20:09:17.871Z,54.40
2022-12-03T20:11:50.150Z,52.20
2022-12-03T20:14:20.585Z,58.40
2022-12-03T20:16:49.827Z,59.50
2022-12-03T20:19:18.866Z,59.50
2022-12-03T20:21:47.657Z,68.00
2022-12-03T20:24:18.452Z,68.40
2022-12-03T20:26:48.616Z,59.70
2022-12-03T20:29:18.615Z,60.70
2022-12-03T20:31:48.535Z,61.90
2022-12-03T20:34:21.082Z,71.60
2022-12-03T20:36:51.997Z,67.80
2022-12-03T20:39:20.648Z,73.30
2022-12-03T20:41:49.359Z,79.80
2022-12-03T20:44:18.366Z,82.90
2022-12-03T20:46:48.010Z,79.80
2022-12-03T20:49:17.284Z,74.50
2022-12-03T20:51:51.054Z,78.80
2022-12-03T20:54:20.210Z,79.90
2022-12-03T20:56:49.751Z,77.40
2022-12-03T20:59:19.745Z,83.10
2022-12-03T21:01:49.373Z,81.10
2022-12-03T21:04:18.826Z,82.30
2022-12-03T21:06:49.401Z,49.30
2022-12-03T21:09:19.186Z,79.00
2022-12-03T21:11:48.255Z,78.70
2022-12-03T21:14:19.576Z,86.40
2022-12-03T21:19:40.575Z,81.90
2022-12-03T21:22:09.522Z,84.10
2022-12-03T21:24:40.128Z,82.80
2022-12-03T21:27:09.050Z,78.30
2022-12-03T21:29:39.214Z,85.60
2022-12-03T21:32:08.565Z,79.30
2022-12-03T21:34:38.282Z,82.50
2022-12-03T21:37:07.049Z,81.30
2022-12-03T21:39:36.270Z,80.00
2022-12-03T21:42:33.390Z,78.20
2022-12-03T21:44:55.145Z,75.30
2022-12-03T21:47:25.141Z,76.70
2022-12-03T21:49:55.066Z,76.80
2022-12-03T21:52:24.851Z,69.40
2022-12-03T21:54:55.052Z,78.50
2022-12-03T21:57:24.770Z,77.70
2022-12-03T21:59:55.226Z,83.00
2022-12-03T22:02:24.350Z,77.10
2022-12-03T22:04:53.653Z,77.40
2022-12-03T22:07:22.526Z,85.30
2022-12-03T22:09:51.148Z,80.50
2022-12-03T22:12:20.098Z,77.30
2022-12-03T22:14:48.971Z,73.30
2022-12-03T22:17:20.539Z,80.10
2022-12-03T22:19:51.188Z,70.60
2022-12-03T22:22:21.074Z,76.50
2022-12-03T22:24:50.081Z,69.70
2022-12-03T22:27:18.661Z,76.10
2022-12-03T22:29:47.065Z,76.60
2022-12-03T22:32:16.466Z,83.20
2022-12-03T22:34:45.045Z,76.60
2022-12-03T22:37:14.574Z,77.60
2022-12-03T22:39:44.181Z,73.30
2022-12-03T22:42:12.935Z,83.90
2022-12-03T22:44:42.227Z,67.10
2022-12-03T22:47:11.966Z,76.50
2022-12-03T22:49:40.561Z,79.70
2022-12-03T22:52:10.415Z,82.40
2022-12-03T22:54:39.852Z,79.20
2022-12-03T22:57:08.636Z,78.00
2022-12-03T22:59:38.346Z,74.10
2022-12-03T23:02:07.225Z,72.20
2022-12-03T23:04:35.814Z,77.10
2022-12-03T23:07:05.827Z,74.60
2022-12-03T23:09:34.516Z,80.60
2022-12-03T23:12:03.004Z,79.20
2022-12-03T23:14:32.095Z,72.70
2022-12-03T23:17:02.011Z,82.20
2022-12-03T23:19:31.000Z,84.10
2022-12-03T23:21:59.485Z,76.10
2022-12-03T23:24:29.021Z,82.20
2022-12-03T23:26:57.825Z,89.40
2022-12-03T23:29:26.883Z,85.80
2022-12-03T23:31:57.626Z,76.00
2022-12-03T23:34:26.117Z,75.90
2022-12-03T23:36:54.471Z,77.60
2022-12-03T23:39:22.908Z,86.70
2022-12-03T23:41:53.120Z,93.40
2022-12-03T23:44:21.745Z,82.60
2022-12-03T23:46:50.016Z,77.20
2022-12-03T23:49:18.511Z,77.80
2022-12-03T23:51:47.224Z,77.70
2022-12-03T23:54:15.676Z,65.30
2022-12-03T23:56:45.376Z,78.50
2022-12-03T23:59:13.863Z,81.80
